sensor_id;sensor_type;location;lat;lon;timestamp;P1;durP1;ratioP1;P2;durP2;ratioP2
64018;SDS011;66942;52.138;5.216;2023-08-06T00:01:37;10.4;;;9.71;;
64018;SDS011;66942;52.138;5.216;2023-08-06T00:03:13;10.5;;;9.6;;
64018;SDS011;66942;52.138;5.216;2023-08-06T00:04:49;9.6;;;9.0;;
64018;SDS011;66942;52.138;5.216;2023-08-06T00:08:01;11.1;;;10.3;;
64018;SDS011;66942;52.138;5.216;2023-08-06T00:09:37;10.6;;;9.9;;
64018;SDS011;66942;52.138;5.216;2023-08-06T00:11:13;9.5;;;9.0;;
64018;SDS011;66942;52.138;5.216;2023-08-06T00:14:25;10.1;;;9.5;;
64018;SDS011;66942;52.138;5.216;2023-08-06T00:16:08;10.0;;;9.4;;
64018;SDS011;66942;52.138;5.216;2023-08-06T00:17:46;10.21;;;9.6;;
64018;SDS011;66942;52.138;5.216;2023-08-06T00:19:23;11.3;;;10.5;;
64018;SDS011;66942;52.138;5.216;2023-08-06T00:22:36;12.8;;;12.0;;
64018;SDS011;66942;52.138;5.216;2023-08-06T00:24:13;10.3;;;9.5;;
64018;SDS011;66942;52.138;5.216;2023-08-06T00:25:49;11.5;;;10.7;;
64018;SDS011;66942;52.138;5.216;2023-08-06T00:29:02;11.6;;;10.8;;
64018;SDS011;66942;52.138;5.216;2023-08-06T00:30:39;11.3;;;10.7;;
64018;SDS011;66942;52.138;5.216;2023-08-06T00:32:16;10.21;;;9.6;;
64018;SDS011;66942;52.138;5.216;2023-08-06T00:33:53;10.4;;;9.71;;
64018;SDS011;66942;52.138;5.216;2023-08-06T00:37:06;9.21;;;8.6;;
64018;SDS011;66942;52.138;5.216;2023-08-06T00:38:43;9.5;;;8.9;;
64018;SDS011;66942;52.138;5.216;2023-08-06T00:40:20;9.4;;;8.9;;
64018;SDS011;66942;52.138;5.216;2023-08-06T00:43:33;10.0;;;9.4;;
64018;SDS011;66942;52.138;5.216;2023-08-06T00:45:10;10.1;;;9.4;;
64018;SDS011;66942;52.138;5.216;2023-08-06T00:46:47;9.9;;;9.31;;
64018;SDS011;66942;52.138;5.216;2023-08-06T00:50:00;10.21;;;9.6;;
64018;SDS011;66942;52.138;5.216;2023-08-06T00:51:37;10.5;;;9.9;;
64018;SDS011;66942;52.138;5.216;2023-08-06T00:53:14;9.5;;;9.0;;
64018;SDS011;66942;52.138;5.216;2023-08-06T00:54:50;10.21;;;9.6;;
64018;SDS011;66942;52.138;5.216;2023-08-06T00:58:04;9.6;;;9.0;;
64018;SDS011;66942;52.138;5.216;2023-08-06T00:59:41;12.1;;;11.1;;
64018;SDS011;66942;52.138;5.216;2023-08-06T01:01:18;12.0;;;11.2;;
64018;SDS011;66942;52.138;5.216;2023-08-06T01:04:32;11.2;;;10.4;;
64018;SDS011;66942;52.138;5.216;2023-08-06T01:06:08;9.9;;;9.31;;
64018;SDS011;66942;52.138;5.216;2023-08-06T01:07:47;11.6;;;10.8;;
64018;SDS011;66942;52.138;5.216;2023-08-06T01:09:40;11.0;;;10.21;;
64018;SDS011;66942;52.138;5.216;2023-08-06T01:13:16;10.5;;;9.81;;
64018;SDS011;66942;52.138;5.216;2023-08-06T01:15:07;11.6;;;10.8;;
64018;SDS011;66942;52.138;5.216;2023-08-06T01:16:52;9.21;;;8.71;;
64018;SDS011;66942;52.138;5.216;2023-08-06T01:18:31;10.9;;;10.21;;
64018;SDS011;66942;52.138;5.216;2023-08-06T01:20:07;11.0;;;10.3;;
64018;SDS011;66942;52.138;5.216;2023-08-06T01:23:20;9.71;;;9.1;;
64018;SDS011;66942;52.138;5.216;2023-08-06T01:24:57;9.21;;;8.6;;
64018;SDS011;66942;52.138;5.216;2023-08-06T01:26:35;11.4;;;10.7;;
64018;SDS011;66942;52.138;5.216;2023-08-06T01:28:19;11.7;;;10.9;;
64018;SDS011;66942;52.138;5.216;2023-08-06T01:31:58;9.21;;;8.71;;
64018;SDS011;66942;52.138;5.216;2023-08-06T01:33:38;10.0;;;9.4;;
64018;SDS011;66942;52.138;5.216;2023-08-06T01:35:21;11.2;;;10.5;;
64018;SDS011;66942;52.138;5.216;2023-08-06T01:36:58;10.3;;;9.81;;
64018;SDS011;66942;52.138;5.216;2023-08-06T01:40:13;11.3;;;10.6;;
64018;SDS011;66942;52.138;5.216;2023-08-06T01:41:50;10.5;;;9.9;;
64018;SDS011;66942;52.138;5.216;2023-08-06T01:43:26;9.9;;;9.4;;
64018;SDS011;66942;52.138;5.216;2023-08-06T01:45:02;9.5;;;8.81;;
64018;SDS011;66942;52.138;5.216;2023-08-06T01:48:16;11.8;;;11.0;;
64018;SDS011;66942;52.138;5.216;2023-08-06T01:49:53;10.9;;;10.21;;
64018;SDS011;66942;52.138;5.216;2023-08-06T01:51:29;10.5;;;9.9;;
64018;SDS011;66942;52.138;5.216;2023-08-06T01:54:41;9.4;;;8.9;;
64018;SDS011;66942;52.138;5.216;2023-08-06T01:56:17;11.7;;;10.9;;
64018;SDS011;66942;52.138;5.216;2023-08-06T01:57:53;10.1;;;9.4;;
64018;SDS011;66942;52.138;5.216;2023-08-06T02:01:05;10.9;;;10.3;;
64018;SDS011;66942;52.138;5.216;2023-08-06T02:02:41;10.21;;;9.4;;
64018;SDS011;66942;52.138;5.216;2023-08-06T02:04:18;12.7;;;11.8;;
64018;SDS011;66942;52.138;5.216;2023-08-06T02:07:30;11.5;;;10.7;;
64018;SDS011;66942;52.138;5.216;2023-08-06T02:09:06;10.5;;;9.9;;
64018;SDS011;66942;52.138;5.216;2023-08-06T02:10:42;9.81;;;9.21;;
64018;SDS011;66942;52.138;5.216;2023-08-06T02:12:18;10.1;;;9.4;;
64018;SDS011;66942;52.138;5.216;2023-08-06T02:15:30;11.7;;;11.0;;
64018;SDS011;66942;52.138;5.216;2023-08-06T02:17:07;10.7;;;10.0;;
64018;SDS011;66942;52.138;5.216;2023-08-06T02:18:43;11.2;;;10.6;;
64018;SDS011;66942;52.138;5.216;2023-08-06T02:21:55;11.2;;;10.5;;
64018;SDS011;66942;52.138;5.216;2023-08-06T02:23:32;11.9;;;11.1;;
64018;SDS011;66942;52.138;5.216;2023-08-06T02:25:08;12.3;;;11.6;;
64018;SDS011;66942;52.138;5.216;2023-08-06T02:28:21;11.9;;;11.2;;
64018;SDS011;66942;52.138;5.216;2023-08-06T02:29:57;10.6;;;9.9;;
64018;SDS011;66942;52.138;5.216;2023-08-06T02:31:35;12.8;;;12.0;;
64018;SDS011;66942;52.138;5.216;2023-08-06T02:33:11;14.1;;;13.0;;
64018;SDS011;66942;52.138;5.216;2023-08-06T02:36:23;12.9;;;12.0;;
64018;SDS011;66942;52.138;5.216;2023-08-06T02:37:59;13.3;;;12.4;;
64018;SDS011;66942;52.138;5.216;2023-08-06T02:39:35;11.7;;;11.1;;
64018;SDS011;66942;52.138;5.216;2023-08-06T02:42:48;11.7;;;11.1;;
64018;SDS011;66942;52.138;5.216;2023-08-06T02:44:26;12.1;;;11.4;;
64018;SDS011;66942;52.138;5.216;2023-08-06T02:46:03;14.4;;;13.4;;
64018;SDS011;66942;52.138;5.216;2023-08-06T02:49:16;14.9;;;13.8;;
64018;SDS011;66942;52.138;5.216;2023-08-06T02:50:52;15.9;;;14.7;;
64018;SDS011;66942;52.138;5.216;2023-08-06T02:52:32;14.6;;;13.7;;
64018;SDS011;66942;52.138;5.216;2023-08-06T02:54:08;16.3;;;15.1;;
64018;SDS011;66942;52.138;5.216;2023-08-06T02:57:22;13.1;;;12.3;;
64018;SDS011;66942;52.138;5.216;2023-08-06T02:58:59;15.6;;;14.5;;
64018;SDS011;66942;52.138;5.216;2023-08-06T03:00:35;13.4;;;12.5;;
64018;SDS011;66942;52.138;5.216;2023-08-06T03:03:48;16.2;;;15.2;;
64018;SDS011;66942;52.138;5.216;2023-08-06T03:05:24;13.0;;;12.3;;
64018;SDS011;66942;52.138;5.216;2023-08-06T03:07:00;15.5;;;14.3;;
64018;SDS011;66942;52.138;5.216;2023-08-06T03:10:12;14.1;;;13.1;;
64018;SDS011;66942;52.138;5.216;2023-08-06T03:11:48;17.61;;;16.3;;
64018;SDS011;66942;52.138;5.216;2023-08-06T03:13:24;16.8;;;15.7;;
64018;SDS011;66942;52.138;5.216;2023-08-06T03:15:02;15.3;;;14.3;;
64018;SDS011;66942;52.138;5.216;2023-08-06T03:18:16;16.4;;;15.3;;
64018;SDS011;66942;52.138;5.216;2023-08-06T03:19:52;15.7;;;14.8;;
64018;SDS011;66942;52.138;5.216;2023-08-06T03:21:28;15.5;;;14.5;;
64018;SDS011;66942;52.138;5.216;2023-08-06T03:24:40;16.0;;;14.8;;
64018;SDS011;66942;52.138;5.216;2023-08-06T03:26:16;13.5;;;12.7;;
64018;SDS011;66942;52.138;5.216;2023-08-06T03:27:52;16.3;;;15.2;;
64018;SDS011;66942;52.138;5.216;2023-08-06T03:31:06;13.7;;;13.0;;
64018;SDS011;66942;52.138;5.216;2023-08-06T03:32:42;15.4;;;14.4;;
64018;SDS011;66942;52.138;5.216;2023-08-06T03:34:18;15.9;;;14.8;;
64018;SDS011;66942;52.138;5.216;2023-08-06T03:35:55;15.8;;;14.8;;
64018;SDS011;66942;52.138;5.216;2023-08-06T03:39:07;17.3;;;16.11;;
64018;SDS011;66942;52.138;5.216;2023-08-06T03:40:43;16.5;;;15.5;;
64018;SDS011;66942;52.138;5.216;2023-08-06T03:42:19;16.0;;;14.9;;
64018;SDS011;66942;52.138;5.216;2023-08-06T03:45:32;16.61;;;15.6;;
64018;SDS011;66942;52.138;5.216;2023-08-06T03:47:08;15.9;;;14.9;;
64018;SDS011;66942;52.138;5.216;2023-08-06T03:48:44;18.91;;;17.5;;
64018;SDS011;66942;52.138;5.216;2023-08-06T03:51:56;15.4;;;14.4;;
64018;SDS011;66942;52.138;5.216;2023-08-06T03:53:32;19.2;;;17.8;;
64018;SDS011;66942;52.138;5.216;2023-08-06T03:55:08;14.7;;;13.8;;
64018;SDS011;66942;52.138;5.216;2023-08-06T03:58:22;13.7;;;13.0;;
64018;SDS011;66942;52.138;5.216;2023-08-06T03:59:58;13.5;;;12.7;;
64018;SDS011;66942;52.138;5.216;2023-08-06T04:01:34;16.4;;;15.4;;
64018;SDS011;66942;52.138;5.216;2023-08-06T04:03:10;14.4;;;13.6;;
64018;SDS011;66942;52.138;5.216;2023-08-06T04:06:23;14.7;;;13.9;;
64018;SDS011;66942;52.138;5.216;2023-08-06T04:07:59;13.3;;;12.4;;
64018;SDS011;66942;52.138;5.216;2023-08-06T04:09:51;14.0;;;13.2;;
64018;SDS011;66942;52.138;5.216;2023-08-06T04:11:29;16.2;;;15.1;;
64018;SDS011;66942;52.138;5.216;2023-08-06T04:14:43;18.2;;;17.0;;
64018;SDS011;66942;52.138;5.216;2023-08-06T04:16:20;22.1;;;20.5;;
64018;SDS011;66942;52.138;5.216;2023-08-06T04:17:57;17.3;;;16.2;;
64018;SDS011;66942;52.138;5.216;2023-08-06T04:21:09;14.8;;;13.9;;
64018;SDS011;66942;52.138;5.216;2023-08-06T04:22:45;15.4;;;14.5;;
64018;SDS011;66942;52.138;5.216;2023-08-06T04:24:21;17.5;;;16.4;;
64018;SDS011;66942;52.138;5.216;2023-08-06T04:27:35;16.5;;;15.5;;
64018;SDS011;66942;52.138;5.216;2023-08-06T04:29:11;16.7;;;15.7;;
64018;SDS011;66942;52.138;5.216;2023-08-06T04:30:48;16.0;;;15.0;;
64018;SDS011;66942;52.138;5.216;2023-08-06T04:32:25;16.11;;;15.0;;
64018;SDS011;66942;52.138;5.216;2023-08-06T04:35:37;16.7;;;15.5;;
64018;SDS011;66942;52.138;5.216;2023-08-06T04:37:13;17.2;;;16.11;;
64018;SDS011;66942;52.138;5.216;2023-08-06T04:38:49;15.3;;;14.4;;
64018;SDS011;66942;52.138;5.216;2023-08-06T04:42:02;15.9;;;15.0;;
64018;SDS011;66942;52.138;5.216;2023-08-06T04:43:39;16.0;;;15.0;;
64018;SDS011;66942;52.138;5.216;2023-08-06T04:45:15;15.8;;;15.0;;
64018;SDS011;66942;52.138;5.216;2023-08-06T04:48:27;13.7;;;12.9;;
64018;SDS011;66942;52.138;5.216;2023-08-06T04:50:03;14.0;;;13.3;;
64018;SDS011;66942;52.138;5.216;2023-08-06T04:51:40;12.5;;;11.9;;
64018;SDS011;66942;52.138;5.216;2023-08-06T04:53:17;14.4;;;13.6;;
64018;SDS011;66942;52.138;5.216;2023-08-06T04:56:31;14.8;;;13.8;;
64018;SDS011;66942;52.138;5.216;2023-08-06T04:58:08;14.9;;;14.0;;
64018;SDS011;66942;52.138;5.216;2023-08-06T04:59:45;12.8;;;12.1;;
64018;SDS011;66942;52.138;5.216;2023-08-06T05:02:59;13.1;;;12.4;;
64018;SDS011;66942;52.138;5.216;2023-08-06T05:04:35;14.2;;;13.4;;
64018;SDS011;66942;52.138;5.216;2023-08-06T05:06:11;14.2;;;13.4;;
64018;SDS011;66942;52.138;5.216;2023-08-06T05:09:26;15.2;;;14.3;;
64018;SDS011;66942;52.138;5.216;2023-08-06T05:11:02;13.8;;;13.1;;
64018;SDS011;66942;52.138;5.216;2023-08-06T05:12:38;15.2;;;14.3;;
64018;SDS011;66942;52.138;5.216;2023-08-06T05:14:14;14.1;;;13.3;;
64018;SDS011;66942;52.138;5.216;2023-08-06T05:17:29;13.8;;;13.1;;
64018;SDS011;66942;52.138;5.216;2023-08-06T05:19:05;14.8;;;13.9;;
64018;SDS011;66942;52.138;5.216;2023-08-06T05:20:42;15.1;;;14.2;;
64018;SDS011;66942;52.138;5.216;2023-08-06T05:23:55;17.91;;;16.7;;
64018;SDS011;66942;52.138;5.216;2023-08-06T05:25:34;15.7;;;14.8;;
64018;SDS011;66942;52.138;5.216;2023-08-06T05:27:10;15.4;;;14.5;;
64018;SDS011;66942;52.138;5.216;2023-08-06T05:30:23;17.0;;;16.0;;
64018;SDS011;66942;52.138;5.216;2023-08-06T05:31:59;16.11;;;15.2;;
64018;SDS011;66942;52.138;5.216;2023-08-06T05:33:37;17.41;;;16.3;;
64018;SDS011;66942;52.138;5.216;2023-08-06T05:35:14;17.0;;;15.9;;
64018;SDS011;66942;52.138;5.216;2023-08-06T05:38:27;16.5;;;15.6;;
64018;SDS011;66942;52.138;5.216;2023-08-06T05:40:06;16.9;;;15.9;;
64018;SDS011;66942;52.138;5.216;2023-08-06T05:41:42;16.9;;;15.9;;
64018;SDS011;66942;52.138;5.216;2023-08-06T05:44:55;18.91;;;17.7;;
64018;SDS011;66942;52.138;5.216;2023-08-06T05:46:32;20.6;;;19.3;;
64018;SDS011;66942;52.138;5.216;2023-08-06T05:48:08;19.2;;;17.91;;
64018;SDS011;66942;52.138;5.216;2023-08-06T05:51:22;20.11;;;18.8;;
64018;SDS011;66942;52.138;5.216;2023-08-06T05:52:58;19.5;;;18.3;;
64018;SDS011;66942;52.138;5.216;2023-08-06T05:54:34;21.3;;;19.91;;
64018;SDS011;66942;52.138;5.216;2023-08-06T05:56:10;20.41;;;19.0;;
64018;SDS011;66942;52.138;5.216;2023-08-06T05:59:23;17.0;;;16.0;;
64018;SDS011;66942;52.138;5.216;2023-08-06T06:01:00;19.3;;;18.11;;
64018;SDS011;66942;52.138;5.216;2023-08-06T06:02:37;17.7;;;16.7;;
64018;SDS011;66942;52.138;5.216;2023-08-06T06:05:50;19.8;;;18.3;;
64018;SDS011;66942;52.138;5.216;2023-08-06T06:07:26;17.8;;;16.7;;
64018;SDS011;66942;52.138;5.216;2023-08-06T06:09:02;17.0;;;16.0;;
64018;SDS011;66942;52.138;5.216;2023-08-06T06:12:14;15.2;;;14.4;;
64018;SDS011;66942;52.138;5.216;2023-08-06T06:13:52;18.41;;;17.3;;
64018;SDS011;66942;52.138;5.216;2023-08-06T06:15:28;18.41;;;17.2;;
64018;SDS011;66942;52.138;5.216;2023-08-06T06:17:04;13.5;;;12.6;;
64018;SDS011;66942;52.138;5.216;2023-08-06T06:20:17;11.5;;;10.9;;
64018;SDS011;66942;52.138;5.216;2023-08-06T06:21:53;8.9;;;8.4;;
64018;SDS011;66942;52.138;5.216;2023-08-06T06:23:31;8.31;;;7.9;;
64018;SDS011;66942;52.138;5.216;2023-08-06T06:26:44;6.7;;;6.3;;
64018;SDS011;66942;52.138;5.216;2023-08-06T06:28:21;4.91;;;4.7;;
64018;SDS011;66942;52.138;5.216;2023-08-06T06:29:58;3.8;;;3.6;;
64018;SDS011;66942;52.138;5.216;2023-08-06T06:33:11;2.8;;;2.7;;
64018;SDS011;66942;52.138;5.216;2023-08-06T06:34:48;2.6;;;2.5;;
64018;SDS011;66942;52.138;5.216;2023-08-06T06:36:26;2.21;;;2.1;;
64018;SDS011;66942;52.138;5.216;2023-08-06T06:38:03;2.31;;;2.21;;
64018;SDS011;66942;52.138;5.216;2023-08-06T06:41:15;2.31;;;2.21;;
64018;SDS011;66942;52.138;5.216;2023-08-06T06:42:52;2.21;;;2.1;;
64018;SDS011;66942;52.138;5.216;2023-08-06T06:44:28;2.0;;;1.9;;
64018;SDS011;66942;52.138;5.216;2023-08-06T06:47:43;2.21;;;2.1;;
64018;SDS011;66942;52.138;5.216;2023-08-06T06:49:19;2.21;;;2.1;;
64018;SDS011;66942;52.138;5.216;2023-08-06T06:50:55;2.21;;;2.1;;
64018;SDS011;66942;52.138;5.216;2023-08-06T06:52:32;2.5;;;2.4;;
64018;SDS011;66942;52.138;5.216;2023-08-06T06:55:45;2.31;;;2.21;;
64018;SDS011;66942;52.138;5.216;2023-08-06T06:57:21;2.5;;;2.4;;
64018;SDS011;66942;52.138;5.216;2023-08-06T06:58:58;2.4;;;2.21;;
64018;SDS011;66942;52.138;5.216;2023-08-06T07:02:12;2.6;;;2.4;;
64018;SDS011;66942;52.138;5.216;2023-08-06T07:03:48;3.0;;;2.8;;
64018;SDS011;66942;52.138;5.216;2023-08-06T07:05:24;2.31;;;2.21;;
64018;SDS011;66942;52.138;5.216;2023-08-06T07:08:36;3.0;;;2.8;;
64018;SDS011;66942;52.138;5.216;2023-08-06T07:10:13;2.9;;;2.8;;
64018;SDS011;66942;52.138;5.216;2023-08-06T07:11:49;2.9;;;2.7;;
64018;SDS011;66942;52.138;5.216;2023-08-06T07:15:02;2.7;;;2.6;;
64018;SDS011;66942;52.138;5.216;2023-08-06T07:16:40;3.3;;;3.1;;
64018;SDS011;66942;52.138;5.216;2023-08-06T07:18:17;3.1;;;2.9;;
64018;SDS011;66942;52.138;5.216;2023-08-06T07:19:53;3.0;;;2.8;;
64018;SDS011;66942;52.138;5.216;2023-08-06T07:23:06;3.4;;;3.2;;
64018;SDS011;66942;52.138;5.216;2023-08-06T07:24:43;3.2;;;3.1;;
64018;SDS011;66942;52.138;5.216;2023-08-06T07:26:19;3.5;;;3.3;;
64018;SDS011;66942;52.138;5.216;2023-08-06T07:29:32;3.3;;;3.1;;
64018;SDS011;66942;52.138;5.216;2023-08-06T07:31:09;3.0;;;2.8;;
64018;SDS011;66942;52.138;5.216;2023-08-06T07:32:46;4.1;;;3.9;;
64018;SDS011;66942;52.138;5.216;2023-08-06T07:34:23;4.0;;;3.8;;
64018;SDS011;66942;52.138;5.216;2023-08-06T07:37:35;4.1;;;3.9;;
64018;SDS011;66942;52.138;5.216;2023-08-06T07:39:11;4.0;;;3.8;;
64018;SDS011;66942;52.138;5.216;2023-08-06T07:40:48;4.1;;;3.8;;
64018;SDS011;66942;52.138;5.216;2023-08-06T07:44:01;4.2;;;4.0;;
64018;SDS011;66942;52.138;5.216;2023-08-06T07:45:37;3.5;;;3.3;;
64018;SDS011;66942;52.138;5.216;2023-08-06T07:47:14;3.7;;;3.5;;
64018;SDS011;66942;52.138;5.216;2023-08-06T07:50:27;3.4;;;3.2;;
64018;SDS011;66942;52.138;5.216;2023-08-06T07:52:04;3.4;;;3.2;;
64018;SDS011;66942;52.138;5.216;2023-08-06T07:53:41;3.6;;;3.4;;
64018;SDS011;66942;52.138;5.216;2023-08-06T07:56:54;3.6;;;3.4;;
64018;SDS011;66942;52.138;5.216;2023-08-06T07:58:30;3.4;;;3.2;;
64018;SDS011;66942;52.138;5.216;2023-08-06T08:00:08;3.3;;;3.1;;
64018;SDS011;66942;52.138;5.216;2023-08-06T08:01:44;3.6;;;3.4;;
64018;SDS011;66942;52.138;5.216;2023-08-06T08:04:58;3.3;;;3.1;;
64018;SDS011;66942;52.138;5.216;2023-08-06T08:06:34;3.6;;;3.4;;
64018;SDS011;66942;52.138;5.216;2023-08-06T08:08:10;3.6;;;3.3;;
64018;SDS011;66942;52.138;5.216;2023-08-06T08:11:23;3.3;;;3.0;;
64018;SDS011;66942;52.138;5.216;2023-08-06T08:13:01;3.2;;;3.0;;
64018;SDS011;66942;52.138;5.216;2023-08-06T08:14:38;3.4;;;3.1;;
64018;SDS011;66942;52.138;5.216;2023-08-06T08:16:15;3.3;;;3.0;;
64018;SDS011;66942;52.138;5.216;2023-08-06T08:19:27;3.6;;;3.3;;
64018;SDS011;66942;52.138;5.216;2023-08-06T08:21:03;3.6;;;3.3;;
64018;SDS011;66942;52.138;5.216;2023-08-06T08:22:40;3.4;;;3.2;;
64018;SDS011;66942;52.138;5.216;2023-08-06T08:25:54;3.6;;;3.3;;
64018;SDS011;66942;52.138;5.216;2023-08-06T08:27:31;3.4;;;3.2;;
64018;SDS011;66942;52.138;5.216;2023-08-06T08:29:07;3.8;;;3.5;;
64018;SDS011;66942;52.138;5.216;2023-08-06T08:32:20;3.7;;;3.4;;
64018;SDS011;66942;52.138;5.216;2023-08-06T08:33:56;3.9;;;3.7;;
64018;SDS011;66942;52.138;5.216;2023-08-06T08:35:33;4.1;;;3.8;;
64018;SDS011;66942;52.138;5.216;2023-08-06T08:37:09;4.3;;;4.1;;
64018;SDS011;66942;52.138;5.216;2023-08-06T08:40:23;4.3;;;4.0;;
64018;SDS011;66942;52.138;5.216;2023-08-06T08:42:05;4.61;;;4.41;;
64018;SDS011;66942;52.138;5.216;2023-08-06T08:43:42;4.61;;;4.2;;
64018;SDS011;66942;52.138;5.216;2023-08-06T08:46:57;4.61;;;4.3;;
64018;SDS011;66942;52.138;5.216;2023-08-06T08:48:35;5.5;;;5.11;;
64018;SDS011;66942;52.138;5.216;2023-08-06T08:50:11;6.1;;;5.6;;
64018;SDS011;66942;52.138;5.216;2023-08-06T08:51:48;5.7;;;5.3;;
64018;SDS011;66942;52.138;5.216;2023-08-06T08:55:06;6.3;;;5.9;;
64018;SDS011;66942;52.138;5.216;2023-08-06T08:56:43;6.2;;;5.7;;
64018;SDS011;66942;52.138;5.216;2023-08-06T08:58:19;6.3;;;5.9;;
64018;SDS011;66942;52.138;5.216;2023-08-06T09:01:32;6.2;;;5.8;;
64018;SDS011;66942;52.138;5.216;2023-08-06T09:03:09;7.1;;;6.5;;
64018;SDS011;66942;52.138;5.216;2023-08-06T09:04:46;7.0;;;6.5;;
64018;SDS011;66942;52.138;5.216;2023-08-06T09:08:03;7.3;;;6.9;;
64018;SDS011;66942;52.138;5.216;2023-08-06T09:09:40;6.7;;;6.3;;
64018;SDS011;66942;52.138;5.216;2023-08-06T09:11:19;7.1;;;6.6;;
64018;SDS011;66942;52.138;5.216;2023-08-06T09:12:57;7.4;;;6.9;;
64018;SDS011;66942;52.138;5.216;2023-08-06T09:16:11;6.4;;;6.0;;
64018;SDS011;66942;52.138;5.216;2023-08-06T09:17:47;6.5;;;6.2;;
64018;SDS011;66942;52.138;5.216;2023-08-06T09:19:24;6.3;;;6.0;;
64018;SDS011;66942;52.138;5.216;2023-08-06T09:22:38;6.4;;;6.0;;
64018;SDS011;66942;52.138;5.216;2023-08-06T09:24:15;7.0;;;6.5;;
64018;SDS011;66942;52.138;5.216;2023-08-06T09:25:51;6.2;;;5.8;;
64018;SDS011;66942;52.138;5.216;2023-08-06T09:27:28;6.4;;;6.0;;
64018;SDS011;66942;52.138;5.216;2023-08-06T09:30:47;7.1;;;6.7;;
64018;SDS011;66942;52.138;5.216;2023-08-06T09:32:24;7.9;;;7.4;;
64018;SDS011;66942;52.138;5.216;2023-08-06T09:34:00;6.7;;;6.2;;
64018;SDS011;66942;52.138;5.216;2023-08-06T09:37:14;5.8;;;5.5;;
64018;SDS011;66942;52.138;5.216;2023-08-06T09:38:51;5.4;;;5.0;;
64018;SDS011;66942;52.138;5.216;2023-08-06T09:40:27;4.61;;;4.3;;
64018;SDS011;66942;52.138;5.216;2023-08-06T09:42:06;5.8;;;5.3;;
64018;SDS011;66942;52.138;5.216;2023-08-06T09:45:20;4.8;;;4.5;;
64018;SDS011;66942;52.138;5.216;2023-08-06T09:46:56;5.0;;;4.7;;
64018;SDS011;66942;52.138;5.216;2023-08-06T09:48:35;4.5;;;4.2;;
64018;SDS011;66942;52.138;5.216;2023-08-06T09:51:52;4.61;;;4.3;;
64018;SDS011;66942;52.138;5.216;2023-08-06T09:53:29;5.3;;;4.91;;
64018;SDS011;66942;52.138;5.216;2023-08-06T09:55:06;5.9;;;5.5;;
64018;SDS011;66942;52.138;5.216;2023-08-06T09:56:44;6.0;;;5.7;;
64018;SDS011;66942;52.138;5.216;2023-08-06T10:00:00;6.9;;;6.4;;
64018;SDS011;66942;52.138;5.216;2023-08-06T10:01:38;6.7;;;6.2;;
64018;SDS011;66942;52.138;5.216;2023-08-06T10:03:15;6.1;;;5.6;;
64018;SDS011;66942;52.138;5.216;2023-08-06T10:06:32;6.2;;;5.8;;
64018;SDS011;66942;52.138;5.216;2023-08-06T10:08:10;5.7;;;5.3;;
64018;SDS011;66942;52.138;5.216;2023-08-06T10:09:47;5.7;;;5.3;;
64018;SDS011;66942;52.138;5.216;2023-08-06T10:11:23;5.2;;;4.8;;
64018;SDS011;66942;52.138;5.216;2023-08-06T10:14:41;5.6;;;5.0;;
64018;SDS011;66942;52.138;5.216;2023-08-06T10:16:18;5.2;;;4.8;;
64018;SDS011;66942;52.138;5.216;2023-08-06T10:17:56;5.0;;;4.61;;
64018;SDS011;66942;52.138;5.216;2023-08-06T10:21:13;5.2;;;4.8;;
64018;SDS011;66942;52.138;5.216;2023-08-06T10:22:59;5.4;;;4.91;;
64018;SDS011;66942;52.138;5.216;2023-08-06T10:24:46;5.3;;;4.91;;
64018;SDS011;66942;52.138;5.216;2023-08-06T10:26:27;4.91;;;4.41;;
64018;SDS011;66942;52.138;5.216;2023-08-06T10:28:06;4.5;;;4.2;;
64018;SDS011;66942;52.138;5.216;2023-08-06T10:31:46;4.3;;;4.0;;
64018;SDS011;66942;52.138;5.216;2023-08-06T10:33:39;4.5;;;4.2;;
64018;SDS011;66942;52.138;5.216;2023-08-06T10:35:50;4.7;;;4.41;;
64018;SDS011;66942;52.138;5.216;2023-08-06T10:37:34;4.2;;;3.8;;
64018;SDS011;66942;52.138;5.216;2023-08-06T10:39:13;4.7;;;4.3;;
64018;SDS011;66942;52.138;5.216;2023-08-06T10:40:50;4.41;;;4.0;;
64018;SDS011;66942;52.138;5.216;2023-08-06T10:44:16;4.61;;;4.3;;
64018;SDS011;66942;52.138;5.216;2023-08-06T10:45:52;4.41;;;4.0;;
64018;SDS011;66942;52.138;5.216;2023-08-06T10:47:29;4.3;;;3.9;;
64018;SDS011;66942;52.138;5.216;2023-08-06T10:49:05;4.0;;;3.7;;
64018;SDS011;66942;52.138;5.216;2023-08-06T10:52:18;4.7;;;4.3;;
64018;SDS011;66942;52.138;5.216;2023-08-06T10:53:54;4.41;;;4.0;;
64018;SDS011;66942;52.138;5.216;2023-08-06T10:55:31;4.3;;;3.9;;
64018;SDS011;66942;52.138;5.216;2023-08-06T10:58:46;4.2;;;3.8;;
64018;SDS011;66942;52.138;5.216;2023-08-06T11:00:24;4.0;;;3.7;;
64018;SDS011;66942;52.138;5.216;2023-08-06T11:02:01;4.1;;;3.5;;
64018;SDS011;66942;52.138;5.216;2023-08-06T11:03:39;5.7;;;3.8;;
64018;SDS011;66942;52.138;5.216;2023-08-06T11:06:53;3.7;;;3.4;;
64018;SDS011;66942;52.138;5.216;2023-08-06T11:08:32;4.3;;;4.0;;
64018;SDS011;66942;52.138;5.216;2023-08-06T11:10:11;4.1;;;3.7;;
64018;SDS011;66942;52.138;5.216;2023-08-06T11:13:25;4.0;;;3.7;;
64018;SDS011;66942;52.138;5.216;2023-08-06T11:15:03;4.2;;;3.8;;
64018;SDS011;66942;52.138;5.216;2023-08-06T11:16:41;3.5;;;3.3;;
64018;SDS011;66942;52.138;5.216;2023-08-06T11:18:18;3.0;;;2.8;;
64018;SDS011;66942;52.138;5.216;2023-08-06T11:21:31;3.8;;;3.5;;
64018;SDS011;66942;52.138;5.216;2023-08-06T11:23:09;3.5;;;3.3;;
64018;SDS011;66942;52.138;5.216;2023-08-06T11:24:45;3.4;;;3.1;;
64018;SDS011;66942;52.138;5.216;2023-08-06T11:28:00;3.3;;;3.0;;
64018;SDS011;66942;52.138;5.216;2023-08-06T11:29:37;3.1;;;2.8;;
64018;SDS011;66942;52.138;5.216;2023-08-06T11:31:18;3.0;;;2.7;;
64018;SDS011;66942;52.138;5.216;2023-08-06T11:32:56;2.6;;;2.4;;
64018;SDS011;66942;52.138;5.216;2023-08-06T11:36:10;2.4;;;2.21;;
64018;SDS011;66942;52.138;5.216;2023-08-06T11:37:46;3.4;;;2.31;;
64018;SDS011;66942;52.138;5.216;2023-08-06T11:39:22;2.5;;;2.31;;
64018;SDS011;66942;52.138;5.216;2023-08-06T11:42:35;2.8;;;2.6;;
64018;SDS011;66942;52.138;5.216;2023-08-06T11:44:12;2.9;;;2.4;;
64018;SDS011;66942;52.138;5.216;2023-08-06T11:45:49;2.4;;;2.0;;
64018;SDS011;66942;52.138;5.216;2023-08-06T11:49:02;2.5;;;2.31;;
64018;SDS011;66942;52.138;5.216;2023-08-06T11:50:39;2.0;;;1.9;;
64018;SDS011;66942;52.138;5.216;2023-08-06T11:52:17;1.8;;;1.7;;
64018;SDS011;66942;52.138;5.216;2023-08-06T11:53:55;2.0;;;1.8;;
64018;SDS011;66942;52.138;5.216;2023-08-06T11:57:09;2.1;;;1.8;;
64018;SDS011;66942;52.138;5.216;2023-08-06T11:58:47;2.31;;;1.8;;
64018;SDS011;66942;52.138;5.216;2023-08-06T12:00:24;2.31;;;1.9;;
64018;SDS011;66942;52.138;5.216;2023-08-06T12:03:40;2.31;;;1.9;;
64018;SDS011;66942;52.138;5.216;2023-08-06T12:05:17;2.0;;;1.5;;
64018;SDS011;66942;52.138;5.216;2023-08-06T12:06:54;4.3;;;2.0;;
64018;SDS011;66942;52.138;5.216;2023-08-06T12:08:31;1.9;;;1.6;;
64018;SDS011;66942;52.138;5.216;2023-08-06T12:11:45;1.4;;;1.3;;
64018;SDS011;66942;52.138;5.216;2023-08-06T12:13:21;1.4;;;1.2;;
64018;SDS011;66942;52.138;5.216;2023-08-06T12:14:57;1.6;;;1.2;;
64018;SDS011;66942;52.138;5.216;2023-08-06T12:18:11;2.21;;;1.3;;
64018;SDS011;66942;52.138;5.216;2023-08-06T12:19:48;2.0;;;1.4;;
64018;SDS011;66942;52.138;5.216;2023-08-06T12:21:24;1.4;;;1.11;;
64018;SDS011;66942;52.138;5.216;2023-08-06T12:24:37;1.2;;;1.11;;
64018;SDS011;66942;52.138;5.216;2023-08-06T12:26:13;1.2;;;1.11;;
64018;SDS011;66942;52.138;5.216;2023-08-06T12:27:49;1.8;;;1.4;;
64018;SDS011;66942;52.138;5.216;2023-08-06T12:29:26;2.9;;;1.5;;
64018;SDS011;66942;52.138;5.216;2023-08-06T12:32:39;1.6;;;1.4;;
64018;SDS011;66942;52.138;5.216;2023-08-06T12:34:15;1.3;;;1.2;;
64018;SDS011;66942;52.138;5.216;2023-08-06T12:35:51;1.9;;;1.3;;
64018;SDS011;66942;52.138;5.216;2023-08-06T12:39:05;1.6;;;1.2;;
64018;SDS011;66942;52.138;5.216;2023-08-06T12:40:41;2.0;;;1.3;;
64018;SDS011;66942;52.138;5.216;2023-08-06T12:42:17;1.8;;;1.2;;
64018;SDS011;66942;52.138;5.216;2023-08-06T12:45:29;1.4;;;1.3;;
64018;SDS011;66942;52.138;5.216;2023-08-06T12:47:06;1.5;;;1.4;;